sensor_id;sensor_type;location;lat;lon;timestamp;P1;durP1;ratioP1;P2;durP2;ratioP2
23470;SDS011;11908;50.806;4.424;2023-04-16T00:01:37;11.50;;;5.85;;
23470;SDS011;11908;50.806;4.424;2023-04-16T00:04:03;9.90;;;5.40;;
23470;SDS011;11908;50.806;4.424;2023-04-16T00:06:29;10.48;;;6.15;;
23470;SDS011;11908;50.806;4.424;2023-04-16T00:08:56;11.70;;;6.20;;
23470;SDS011;11908;50.806;4.424;2023-04-16T00:11:21;9.98;;;6.15;;
23470;SDS011;11908;50.806;4.424;2023-04-16T00:13:47;13.57;;;6.47;;
23470;SDS011;11908;50.806;4.424;2023-04-16T00:16:13;13.65;;;5.70;;
23470;SDS011;11908;50.806;4.424;2023-04-16T00:18:39;13.85;;;6.05;;
23470;SDS011;11908;50.806;4.424;2023-04-16T00:21:05;10.68;;;5.93;;
23470;SDS011;11908;50.806;4.424;2023-04-16T00:23:31;13.68;;;6.57;;
23470;SDS011;11908;50.806;4.424;2023-04-16T00:25:57;15.30;;;5.45;;
23470;SDS011;11908;50.806;4.424;2023-04-16T00:28:26;11.70;;;5.93;;
23470;SDS011;11908;50.806;4.424;2023-04-16T00:30:52;13.68;;;6.68;;
23470;SDS011;11908;50.806;4.424;2023-04-16T00:33:18;15.40;;;6.45;;
23470;SDS011;11908;50.806;4.424;2023-04-16T00:35:47;18.85;;;6.60;;
23470;SDS011;11908;50.806;4.424;2023-04-16T00:38:13;11.75;;;6.32;;
23470;SDS011;11908;50.806;4.424;2023-04-16T00:40:38;14.07;;;7.30;;
23470;SDS011;11908;50.806;4.424;2023-04-16T00:43:04;13.52;;;6.93;;
23470;SDS011;11908;50.806;4.424;2023-04-16T00:45:30;13.23;;;7.05;;
23470;SDS011;11908;50.806;4.424;2023-04-16T00:47:56;12.82;;;6.80;;
23470;SDS011;11908;50.806;4.424;2023-04-16T00:50:23;11.23;;;6.75;;
23470;SDS011;11908;50.806;4.424;2023-04-16T00:52:49;12.63;;;6.00;;
23470;SDS011;11908;50.806;4.424;2023-04-16T00:55:15;15.80;;;5.97;;
23470;SDS011;11908;50.806;4.424;2023-04-16T00:57:43;9.15;;;5.28;;
23470;SDS011;11908;50.806;4.424;2023-04-16T01:00:09;8.82;;;5.10;;
23470;SDS011;11908;50.806;4.424;2023-04-16T01:02:36;9.00;;;4.38;;
23470;SDS011;11908;50.806;4.424;2023-04-16T01:05:02;10.05;;;4.60;;
23470;SDS011;11908;50.806;4.424;2023-04-16T01:07:28;10.40;;;3.85;;
23470;SDS011;11908;50.806;4.424;2023-04-16T01:09:55;11.38;;;4.53;;
23470;SDS011;11908;50.806;4.424;2023-04-16T01:12:20;24.40;;;4.97;;
23470;SDS011;11908;50.806;4.424;2023-04-16T01:14:46;11.15;;;5.30;;
23470;SDS011;11908;50.806;4.424;2023-04-16T01:17:12;13.15;;;5.22;;
23470;SDS011;11908;50.806;4.424;2023-04-16T01:19:38;15.93;;;6.82;;
23470;SDS011;11908;50.806;4.424;2023-04-16T01:22:04;12.15;;;6.55;;
23470;SDS011;11908;50.806;4.424;2023-04-16T01:24:30;9.38;;;5.88;;
23470;SDS011;11908;50.806;4.424;2023-04-16T01:26:59;8.57;;;5.55;;
23470;SDS011;11908;50.806;4.424;2023-04-16T01:29:25;10.80;;;5.43;;
23470;SDS011;11908;50.806;4.424;2023-04-16T01:31:51;11.50;;;4.40;;
23470;SDS011;11908;50.806;4.424;2023-04-16T01:34:17;9.00;;;4.57;;
23470;SDS011;11908;50.806;4.424;2023-04-16T01:36:43;11.23;;;3.97;;
23470;SDS011;11908;50.806;4.424;2023-04-16T01:39:08;4.57;;;3.25;;
23470;SDS011;11908;50.806;4.424;2023-04-16T01:41:38;7.97;;;2.55;;
23470;SDS011;11908;50.806;4.424;2023-04-16T01:44:04;9.07;;;3.22;;
23470;SDS011;11908;50.806;4.424;2023-04-16T01:46:30;4.97;;;3.00;;
23470;SDS011;11908;50.806;4.424;2023-04-16T01:48:57;7.85;;;3.20;;
23470;SDS011;11908;50.806;4.424;2023-04-16T01:51:23;5.95;;;2.72;;
23470;SDS011;11908;50.806;4.424;2023-04-16T01:53:49;17.00;;;3.13;;
23470;SDS011;11908;50.806;4.424;2023-04-16T01:56:15;10.55;;;2.63;;
23470;SDS011;11908;50.806;4.424;2023-04-16T01:58:41;9.32;;;3.60;;
23470;SDS011;11908;50.806;4.424;2023-04-16T02:01:07;7.70;;;2.63;;
23470;SDS011;11908;50.806;4.424;2023-04-16T02:03:33;7.78;;;3.42;;
23470;SDS011;11908;50.806;4.424;2023-04-16T02:05:59;8.70;;;3.70;;
23470;SDS011;11908;50.806;4.424;2023-04-16T02:08:25;9.32;;;2.90;;
23470;SDS011;11908;50.806;4.424;2023-04-16T02:10:51;8.45;;;3.70;;
23470;SDS011;11908;50.806;4.424;2023-04-16T02:13:17;11.20;;;3.53;;
23470;SDS011;11908;50.806;4.424;2023-04-16T02:15:46;14.60;;;3.55;;
23470;SDS011;11908;50.806;4.424;2023-04-16T02:18:15;6.13;;;3.42;;
23470;SDS011;11908;50.806;4.424;2023-04-16T02:20:41;9.15;;;3.97;;
23470;SDS011;11908;50.806;4.424;2023-04-16T02:23:08;12.32;;;3.92;;
23470;SDS011;11908;50.806;4.424;2023-04-16T02:25:41;8.00;;;3.33;;
23470;SDS011;11908;50.806;4.424;2023-04-16T02:28:08;8.68;;;3.65;;
23470;SDS011;11908;50.806;4.424;2023-04-16T02:30:35;9.00;;;3.92;;
23470;SDS011;11908;50.806;4.424;2023-04-16T02:33:01;7.68;;;3.80;;
23470;SDS011;11908;50.806;4.424;2023-04-16T02:35:32;11.73;;;3.55;;
23470;SDS011;11908;50.806;4.424;2023-04-16T02:38:01;4.25;;;3.10;;
23470;SDS011;11908;50.806;4.424;2023-04-16T02:40:28;7.75;;;2.97;;
23470;SDS011;11908;50.806;4.424;2023-04-16T02:42:54;10.60;;;3.85;;
23470;SDS011;11908;50.806;4.424;2023-04-16T02:45:20;7.28;;;3.42;;
23470;SDS011;11908;50.806;4.424;2023-04-16T02:47:46;7.07;;;3.08;;
23470;SDS011;11908;50.806;4.424;2023-04-16T02:50:13;9.50;;;3.40;;
23470;SDS011;11908;50.806;4.424;2023-04-16T02:52:39;10.20;;;3.53;;
23470;SDS011;11908;50.806;4.424;2023-04-16T02:55:05;8.95;;;3.28;;
23470;SDS011;11908;50.806;4.424;2023-04-16T02:57:31;8.85;;;3.90;;
23470;SDS011;11908;50.806;4.424;2023-04-16T02:59:56;7.78;;;3.67;;
23470;SDS011;11908;50.806;4.424;2023-04-16T03:02:22;6.55;;;3.40;;
23470;SDS011;11908;50.806;4.424;2023-04-16T03:04:48;8.98;;;3.67;;
23470;SDS011;11908;50.806;4.424;2023-04-16T03:07:13;6.57;;;3.53;;
23470;SDS011;11908;50.806;4.424;2023-04-16T03:09:39;13.20;;;4.55;;
23470;SDS011;11908;50.806;4.424;2023-04-16T03:12:05;5.35;;;3.50;;
23470;SDS011;11908;50.806;4.424;2023-04-16T03:14:31;9.65;;;3.60;;
23470;SDS011;11908;50.806;4.424;2023-04-16T03:16:57;7.65;;;4.00;;
23470;SDS011;11908;50.806;4.424;2023-04-16T03:19:23;16.17;;;4.13;;
23470;SDS011;11908;50.806;4.424;2023-04-16T03:21:48;9.15;;;3.67;;
23470;SDS011;11908;50.806;4.424;2023-04-16T03:24:14;8.43;;;3.45;;
23470;SDS011;11908;50.806;4.424;2023-04-16T03:26:40;7.32;;;3.58;;
23470;SDS011;11908;50.806;4.424;2023-04-16T03:29:06;10.10;;;3.60;;
23470;SDS011;11908;50.806;4.424;2023-04-16T03:31:31;5.82;;;3.47;;
23470;SDS011;11908;50.806;4.424;2023-04-16T03:33:57;6.70;;;3.30;;
23470;SDS011;11908;50.806;4.424;2023-04-16T03:36:23;10.07;;;4.15;;
23470;SDS011;11908;50.806;4.424;2023-04-16T03:38:49;8.32;;;3.45;;
23470;SDS011;11908;50.806;4.424;2023-04-16T03:41:14;10.00;;;3.45;;
23470;SDS011;11908;50.806;4.424;2023-04-16T03:43:40;7.22;;;3.55;;
23470;SDS011;11908;50.806;4.424;2023-04-16T03:46:06;13.82;;;3.67;;
23470;SDS011;11908;50.806;4.424;2023-04-16T03:48:32;12.77;;;3.38;;
23470;SDS011;11908;50.806;4.424;2023-04-16T03:50:58;11.35;;;3.17;;
23470;SDS011;11908;50.806;4.424;2023-04-16T03:53:23;13.98;;;3.85;;
23470;SDS011;11908;50.806;4.424;2023-04-16T03:55:49;5.85;;;3.70;;
23470;SDS011;11908;50.806;4.424;2023-04-16T03:58:15;6.93;;;3.80;;
23470;SDS011;11908;50.806;4.424;2023-04-16T04:00:41;12.10;;;3.55;;
23470;SDS011;11908;50.806;4.424;2023-04-16T04:03:07;8.88;;;3.78;;
23470;SDS011;11908;50.806;4.424;2023-04-16T04:05:37;12.30;;;3.97;;
23470;SDS011;11908;50.806;4.424;2023-04-16T04:08:04;11.13;;;3.72;;
23470;SDS011;11908;50.806;4.424;2023-04-16T04:10:33;8.40;;;3.40;;
23470;SDS011;11908;50.806;4.424;2023-04-16T04:13:03;12.63;;;4.22;;
23470;SDS011;11908;50.806;4.424;2023-04-16T04:15:30;8.88;;;3.72;;
23470;SDS011;11908;50.806;4.424;2023-04-16T04:17:56;7.38;;;3.63;;
23470;SDS011;11908;50.806;4.424;2023-04-16T04:20:22;10.73;;;3.55;;
23470;SDS011;11908;50.806;4.424;2023-04-16T04:22:48;6.88;;;3.58;;
23470;SDS011;11908;50.806;4.424;2023-04-16T04:25:15;11.50;;;3.60;;
23470;SDS011;11908;50.806;4.424;2023-04-16T04:27:41;7.28;;;3.92;;
23470;SDS011;11908;50.806;4.424;2023-04-16T04:30:07;12.38;;;4.40;;
23470;SDS011;11908;50.806;4.424;2023-04-16T04:32:33;12.13;;;4.30;;
23470;SDS011;11908;50.806;4.424;2023-04-16T04:34:59;12.15;;;4.20;;
23470;SDS011;11908;50.806;4.424;2023-04-16T04:37:26;19.88;;;5.30;;
23470;SDS011;11908;50.806;4.424;2023-04-16T04:39:51;7.38;;;4.75;;
23470;SDS011;11908;50.806;4.424;2023-04-16T04:42:17;9.93;;;5.20;;
23470;SDS011;11908;50.806;4.424;2023-04-16T04:44:44;16.30;;;5.70;;
23470;SDS011;11908;50.806;4.424;2023-04-16T04:47:10;11.98;;;5.43;;
23470;SDS011;11908;50.806;4.424;2023-04-16T04:49:35;8.23;;;5.50;;
23470;SDS011;11908;50.806;4.424;2023-04-16T04:52:01;15.20;;;5.57;;
23470;SDS011;11908;50.806;4.424;2023-04-16T04:54:27;11.77;;;5.85;;
23470;SDS011;11908;50.806;4.424;2023-04-16T04:56:54;8.55;;;5.88;;
23470;SDS011;11908;50.806;4.424;2023-04-16T04:59:20;9.07;;;6.28;;
23470;SDS011;11908;50.806;4.424;2023-04-16T05:01:47;9.25;;;6.20;;
23470;SDS011;11908;50.806;4.424;2023-04-16T05:04:13;15.43;;;7.13;;
23470;SDS011;11908;50.806;4.424;2023-04-16T05:06:38;14.38;;;6.97;;
23470;SDS011;11908;50.806;4.424;2023-04-16T05:09:04;15.13;;;6.57;;
23470;SDS011;11908;50.806;4.424;2023-04-16T05:11:32;18.85;;;5.93;;
23470;SDS011;11908;50.806;4.424;2023-04-16T05:13:58;12.25;;;6.15;;
23470;SDS011;11908;50.806;4.424;2023-04-16T05:16:23;10.35;;;6.13;;
23470;SDS011;11908;50.806;4.424;2023-04-16T05:18:49;13.05;;;5.45;;
23470;SDS011;11908;50.806;4.424;2023-04-16T05:21:15;15.10;;;5.57;;
23470;SDS011;11908;50.806;4.424;2023-04-16T05:23:40;12.43;;;4.72;;
23470;SDS011;11908;50.806;4.424;2023-04-16T05:26:06;8.00;;;5.07;;
23470;SDS011;11908;50.806;4.424;2023-04-16T05:28:32;9.85;;;5.20;;
23470;SDS011;11908;50.806;4.424;2023-04-16T05:30:57;13.75;;;4.72;;
23470;SDS011;11908;50.806;4.424;2023-04-16T05:33:23;11.95;;;3.75;;
23470;SDS011;11908;50.806;4.424;2023-04-16T05:35:49;10.77;;;3.72;;
23470;SDS011;11908;50.806;4.424;2023-04-16T05:38:15;11.38;;;4.38;;
23470;SDS011;11908;50.806;4.424;2023-04-16T05:40:40;9.30;;;3.88;;
23470;SDS011;11908;50.806;4.424;2023-04-16T05:43:06;10.95;;;4.05;;
23470;SDS011;11908;50.806;4.424;2023-04-16T05:45:32;8.35;;;3.80;;
23470;SDS011;11908;50.806;4.424;2023-04-16T05:48:03;7.88;;;3.33;;
23470;SDS011;11908;50.806;4.424;2023-04-16T05:50:29;8.07;;;3.53;;
23470;SDS011;11908;50.806;4.424;2023-04-16T05:52:55;7.05;;;3.67;;
23470;SDS011;11908;50.806;4.424;2023-04-16T05:55:21;10.85;;;3.88;;
23470;SDS011;11908;50.806;4.424;2023-04-16T05:57:46;7.57;;;3.10;;
23470;SDS011;11908;50.806;4.424;2023-04-16T06:00:12;7.68;;;3.33;;
23470;SDS011;11908;50.806;4.424;2023-04-16T06:02:37;12.20;;;3.47;;
23470;SDS011;11908;50.806;4.424;2023-04-16T06:05:03;15.25;;;3.78;;
23470;SDS011;11908;50.806;4.424;2023-04-16T06:07:29;9.35;;;3.47;;
23470;SDS011;11908;50.806;4.424;2023-04-16T06:09:55;10.80;;;3.25;;
23470;SDS011;11908;50.806;4.424;2023-04-16T06:12:20;9.95;;;4.13;;
23470;SDS011;11908;50.806;4.424;2023-04-16T06:14:46;16.33;;;3.65;;
23470;SDS011;11908;50.806;4.424;2023-04-16T06:17:12;14.15;;;4.07;;
23470;SDS011;11908;50.806;4.424;2023-04-16T06:19:37;15.18;;;4.22;;
23470;SDS011;11908;50.806;4.424;2023-04-16T06:22:03;13.88;;;4.20;;
23470;SDS011;11908;50.806;4.424;2023-04-16T06:24:30;15.40;;;3.97;;
23470;SDS011;11908;50.806;4.424;2023-04-16T06:26:56;10.75;;;3.97;;
23470;SDS011;11908;50.806;4.424;2023-04-16T06:29:21;11.32;;;3.75;;
23470;SDS011;11908;50.806;4.424;2023-04-16T06:31:47;13.48;;;4.72;;
23470;SDS011;11908;50.806;4.424;2023-04-16T06:34:13;15.10;;;4.78;;
23470;SDS011;11908;50.806;4.424;2023-04-16T06:36:39;12.90;;;4.38;;
23470;SDS011;11908;50.806;4.424;2023-04-16T06:39:04;12.18;;;5.00;;
23470;SDS011;11908;50.806;4.424;2023-04-16T06:41:30;14.52;;;4.85;;
23470;SDS011;11908;50.806;4.424;2023-04-16T06:43:56;11.10;;;4.75;;
23470;SDS011;11908;50.806;4.424;2023-04-16T06:46:21;11.23;;;5.05;;
23470;SDS011;11908;50.806;4.424;2023-04-16T06:48:47;12.30;;;5.45;;
23470;SDS011;11908;50.806;4.424;2023-04-16T06:51:13;14.77;;;5.60;;
23470;SDS011;11908;50.806;4.424;2023-04-16T06:53:38;16.48;;;5.70;;
23470;SDS011;11908;50.806;4.424;2023-04-16T06:56:04;13.85;;;5.68;;
23470;SDS011;11908;50.806;4.424;2023-04-16T06:58:30;11.82;;;5.60;;
23470;SDS011;11908;50.806;4.424;2023-04-16T07:00:56;14.27;;;5.60;;
23470;SDS011;11908;50.806;4.424;2023-04-16T07:03:22;8.95;;;5.13;;
23470;SDS011;11908;50.806;4.424;2023-04-16T07:05:48;13.18;;;5.25;;
23470;SDS011;11908;50.806;4.424;2023-04-16T07:08:14;14.70;;;5.75;;
23470;SDS011;11908;50.806;4.424;2023-04-16T07:10:39;18.60;;;7.40;;
23470;SDS011;11908;50.806;4.424;2023-04-16T07:13:05;14.18;;;6.38;;
23470;SDS011;11908;50.806;4.424;2023-04-16T07:15:30;15.20;;;6.63;;
23470;SDS011;11908;50.806;4.424;2023-04-16T07:17:56;16.52;;;7.47;;
23470;SDS011;11908;50.806;4.424;2023-04-16T07:20:22;12.70;;;8.10;;
23470;SDS011;11908;50.806;4.424;2023-04-16T07:22:48;21.20;;;8.48;;
23470;SDS011;11908;50.806;4.424;2023-04-16T07:25:13;26.30;;;9.40;;
23470;SDS011;11908;50.806;4.424;2023-04-16T07:27:39;20.60;;;9.23;;
23470;SDS011;11908;50.806;4.424;2023-04-16T07:30:05;19.80;;;9.45;;
23470;SDS011;11908;50.806;4.424;2023-04-16T07:32:32;17.63;;;10.05;;
23470;SDS011;11908;50.806;4.424;2023-04-16T07:34:57;20.05;;;9.77;;
23470;SDS011;11908;50.806;4.424;2023-04-16T07:37:23;22.90;;;10.23;;
23470;SDS011;11908;50.806;4.424;2023-04-16T07:39:48;21.77;;;9.77;;
23470;SDS011;11908;50.806;4.424;2023-04-16T07:42:15;20.92;;;10.93;;
23470;SDS011;11908;50.806;4.424;2023-04-16T07:44:41;27.52;;;9.82;;
23470;SDS011;11908;50.806;4.424;2023-04-16T07:47:07;23.58;;;10.55;;
23470;SDS011;11908;50.806;4.424;2023-04-16T07:49:33;23.00;;;8.90;;
23470;SDS011;11908;50.806;4.424;2023-04-16T07:51:59;15.88;;;9.00;;
23470;SDS011;11908;50.806;4.424;2023-04-16T07:54:24;26.42;;;8.95;;
23470;SDS011;11908;50.806;4.424;2023-04-16T07:56:50;21.13;;;8.88;;
23470;SDS011;11908;50.806;4.424;2023-04-16T07:59:16;21.73;;;8.77;;
23470;SDS011;11908;50.806;4.424;2023-04-16T08:01:42;18.20;;;9.35;;
23470;SDS011;11908;50.806;4.424;2023-04-16T08:04:07;22.90;;;9.65;;
23470;SDS011;11908;50.806;4.424;2023-04-16T08:06:33;27.73;;;10.32;;
23470;SDS011;11908;50.806;4.424;2023-04-16T08:08:58;22.88;;;10.07;;
23470;SDS011;11908;50.806;4.424;2023-04-16T08:11:24;20.83;;;9.45;;
23470;SDS011;11908;50.806;4.424;2023-04-16T08:13:50;21.95;;;10.18;;
23470;SDS011;11908;50.806;4.424;2023-04-16T08:16:15;23.65;;;9.95;;
23470;SDS011;11908;50.806;4.424;2023-04-16T08:18:41;22.35;;;9.60;;
23470;SDS011;11908;50.806;4.424;2023-04-16T08:21:07;22.58;;;10.02;;
23470;SDS011;11908;50.806;4.424;2023-04-16T08:23:33;21.63;;;9.90;;
23470;SDS011;11908;50.806;4.424;2023-04-16T08:25:59;23.75;;;10.43;;
23470;SDS011;11908;50.806;4.424;2023-04-16T08:28:25;30.45;;;10.75;;
23470;SDS011;11908;50.806;4.424;2023-04-16T08:30:51;24.52;;;10.48;;
23470;SDS011;11908;50.806;4.424;2023-04-16T08:33:17;20.70;;;10.27;;
23470;SDS011;11908;50.806;4.424;2023-04-16T08:35:42;20.02;;;9.55;;
23470;SDS011;11908;50.806;4.424;2023-04-16T08:38:08;17.98;;;9.60;;
23470;SDS011;11908;50.806;4.424;2023-04-16T08:40:34;22.52;;;9.15;;
23470;SDS011;11908;50.806;4.424;2023-04-16T08:43:04;16.98;;;9.35;;
23470;SDS011;11908;50.806;4.424;2023-04-16T08:45:35;20.08;;;9.10;;
23470;SDS011;11908;50.806;4.424;2023-04-16T08:48:02;17.48;;;9.38;;
23470;SDS011;11908;50.806;4.424;2023-04-16T08:50:29;17.83;;;9.15;;
23470;SDS011;11908;50.806;4.424;2023-04-16T08:52:59;16.20;;;9.10;;
23470;SDS011;11908;50.806;4.424;2023-04-16T08:55:35;20.88;;;9.63;;
23470;SDS011;11908;50.806;4.424;2023-04-16T08:58:05;23.00;;;10.90;;
23470;SDS011;11908;50.806;4.424;2023-04-16T09:00:36;23.63;;;11.55;;
23470;SDS011;11908;50.806;4.424;2023-04-16T09:03:03;27.05;;;10.63;;
23470;SDS011;11908;50.806;4.424;2023-04-16T09:05:29;23.40;;;12.63;;
23470;SDS011;11908;50.806;4.424;2023-04-16T09:07:56;28.75;;;12.27;;
23470;SDS011;11908;50.806;4.424;2023-04-16T09:10:21;30.38;;;12.55;;
23470;SDS011;11908;50.806;4.424;2023-04-16T09:12:49;28.23;;;12.23;;
23470;SDS011;11908;50.806;4.424;2023-04-16T09:15:16;29.33;;;13.00;;
23470;SDS011;11908;50.806;4.424;2023-04-16T09:17:45;25.35;;;12.23;;
23470;SDS011;11908;50.806;4.424;2023-04-16T09:20:11;24.70;;;13.00;;
23470;SDS011;11908;50.806;4.424;2023-04-16T09:22:37;26.17;;;11.80;;
23470;SDS011;11908;50.806;4.424;2023-04-16T09:25:04;27.80;;;12.38;;
23470;SDS011;11908;50.806;4.424;2023-04-16T09:27:30;30.15;;;12.35;;
23470;SDS011;11908;50.806;4.424;2023-04-16T09:29:56;21.77;;;13.10;;
23470;SDS011;11908;50.806;4.424;2023-04-16T09:32:25;28.15;;;13.35;;
23470;SDS011;11908;50.806;4.424;2023-04-16T09:34:56;26.45;;;13.13;;
23470;SDS011;11908;50.806;4.424;2023-04-16T09:37:23;31.67;;;12.55;;
23470;SDS011;11908;50.806;4.424;2023-04-16T09:39:54;30.40;;;13.48;;
23470;SDS011;11908;50.806;4.424;2023-04-16T09:42:20;29.52;;;13.73;;
23470;SDS011;11908;50.806;4.424;2023-04-16T09:44:48;26.35;;;13.32;;
23470;SDS011;11908;50.806;4.424;2023-04-16T09:47:13;23.25;;;13.40;;
23470;SDS011;11908;50.806;4.424;2023-04-16T09:49:40;26.95;;;13.32;;
23470;SDS011;11908;50.806;4.424;2023-04-16T09:52:16;33.58;;;13.90;;
23470;SDS011;11908;50.806;4.424;2023-04-16T09:54:50;29.40;;;12.52;;
23470;SDS011;11908;50.806;4.424;2023-04-16T09:57:21;27.00;;;12.05;;
23470;SDS011;11908;50.806;4.424;2023-04-16T09:59:53;20.52;;;11.25;;
23470;SDS011;11908;50.806;4.424;2023-04-16T10:02:29;23.33;;;11.70;;
23470;SDS011;11908;50.806;4.424;2023-04-16T10:04:55;22.90;;;10.40;;
23470;SDS011;11908;50.806;4.424;2023-04-16T10:07:27;23.10;;;11.48;;
23470;SDS011;11908;50.806;4.424;2023-04-16T10:09:53;22.73;;;11.52;;
23470;SDS011;11908;50.806;4.424;2023-04-16T10:12:20;22.40;;;11.25;;
23470;SDS011;11908;50.806;4.424;2023-04-16T10:14:46;18.50;;;10.60;;
23470;SDS011;11908;50.806;4.424;2023-04-16T10:17:11;18.67;;;10.35;;
23470;SDS011;11908;50.806;4.424;2023-04-16T10:19:37;22.80;;;11.23;;
23470;SDS011;11908;50.806;4.424;2023-04-16T10:22:04;24.63;;;11.02;;
23470;SDS011;11908;50.806;4.424;2023-04-16T10:24:31;18.75;;;10.40;;
23470;SDS011;11908;50.806;4.424;2023-04-16T10:26:58;16.58;;;9.07;;
23470;SDS011;11908;50.806;4.424;2023-04-16T10:29:24;22.50;;;9.93;;
23470;SDS011;11908;50.806;4.424;2023-04-16T10:31:52;20.85;;;10.57;;
23470;SDS011;11908;50.806;4.424;2023-04-16T10:34:19;17.77;;;9.90;;
23470;SDS011;11908;50.806;4.424;2023-04-16T10:36:52;20.02;;;11.15;;
23470;SDS011;11908;50.806;4.424;2023-04-16T10:39:26;19.25;;;10.20;;
23470;SDS011;11908;50.806;4.424;2023-04-16T10:42:09;15.68;;;9.73;;
23470;SDS011;11908;50.806;4.424;2023-04-16T10:44:36;18.20;;;10.32;;
23470;SDS011;11908;50.806;4.424;2023-04-16T10:47:02;20.17;;;11.30;;
23470;SDS011;11908;50.806;4.424;2023-04-16T10:49:35;21.73;;;11.13;;
23470;SDS011;11908;50.806;4.424;2023-04-16T10:52:06;19.55;;;11.68;;
23470;SDS011;11908;50.806;4.424;2023-04-16T10:54:34;23.83;;;13.00;;
23470;SDS011;11908;50.806;4.424;2023-04-16T10:57:18;20.75;;;11.50;;
23470;SDS011;11908;50.806;4.424;2023-04-16T11:02:14;17.27;;;11.43;;
23470;SDS011;11908;50.806;4.424;2023-04-16T11:04:42;23.10;;;12.95;;
23470;SDS011;11908;50.806;4.424;2023-04-16T11:09:51;21.05;;;12.32;;
23470;SDS011;11908;50.806;4.424;2023-04-16T11:12:22;24.73;;;13.85;;
23470;SDS011;11908;50.806;4.424;2023-04-16T11:17:30;25.20;;;12.32;;
23470;SDS011;11908;50.806;4.424;2023-04-16T11:19:57;22.17;;;11.15;;
23470;SDS011;11908;50.806;4.424;2023-04-16T11:22:23;19.02;;;11.18;;
23470;SDS011;11908;50.806;4.424;2023-04-16T11:24:53;24.30;;;12.73;;
23470;SDS011;11908;50.806;4.424;2023-04-16T11:27:20;21.55;;;11.85;;
23470;SDS011;11908;50.806;4.424;2023-04-16T11:29:55;27.10;;;12.05;;
23470;SDS011;11908;50.806;4.424;2023-04-16T11:32:22;23.20;;;12.45;;
23470;SDS011;11908;50.806;4.424;2023-04-16T11:34:48;28.90;;;12.63;;
23470;SDS011;11908;50.806;4.424;2023-04-16T11:37:14;32.97;;;12.95;;
23470;SDS011;11908;50.806;4.424;2023-04-16T11:39:49;31.15;;;13.07;;
23470;SDS011;11908;50.806;4.424;2023-04-16T11:42:19;23.95;;;12.63;;
23470;SDS011;11908;50.806;4.424;2023-04-16T11:44:50;23.20;;;12.45;;
23470;SDS011;11908;50.806;4.424;2023-04-16T11:47:17;21.17;;;11.45;;
23470;SDS011;11908;50.806;4.424;2023-04-16T11:49:43;31.63;;;12.43;;
23470;SDS011;11908;50.806;4.424;2023-04-16T11:52:08;25.73;;;13.50;;
23470;SDS011;11908;50.806;4.424;2023-04-16T11:54:34;18.25;;;11.57;;
23470;SDS011;11908;50.806;4.424;2023-04-16T11:57:01;23.48;;;12.32;;
23470;SDS011;11908;50.806;4.424;2023-04-16T11:59:30;21.40;;;12.82;;
23470;SDS011;11908;50.806;4.424;2023-04-16T12:01:57;25.95;;;13.32;;
23470;SDS011;11908;50.806;4.424;2023-04-16T12:04:23;26.30;;;12.95;;
23470;SDS011;11908;50.806;4.424;2023-04-16T12:07:09;24.48;;;12.98;;
23470;SDS011;11908;50.806;4.424;2023-04-16T12:09:37;26.52;;;13.40;;
23470;SDS011;11908;50.806;4.424;2023-04-16T12:12:04;26.13;;;13.13;;
23470;SDS011;11908;50.806;4.424;2023-04-16T12:14:30;27.25;;;13.68;;
23470;SDS011;11908;50.806;4.424;2023-04-16T12:17:15;27.95;;;14.75;;
23470;SDS011;11908;50.806;4.424;2023-04-16T12:19:51;28.70;;;13.23;;
23470;SDS011;11908;50.806;4.424;2023-04-16T12:22:29;28.90;;;14.68;;
23470;SDS011;11908;50.806;4.424;2023-04-16T12:24:59;25.27;;;13.35;;
23470;SDS011;11908;50.806;4.424;2023-04-16T12:30:20;24.90;;;12.95;;
23470;SDS011;11908;50.806;4.424;2023-04-16T12:32:48;21.42;;;11.85;;
23470;SDS011;11908;50.806;4.424;2023-04-16T12:35:31;27.08;;;13.05;;
23470;SDS011;11908;50.806;4.424;2023-04-16T12:37:58;24.02;;;12.55;;
23470;SDS011;11908;50.806;4.424;2023-04-16T12:40:25;23.00;;;14.13;;
23470;SDS011;11908;50.806;4.424;2023-04-16T12:42:51;20.83;;;12.63;;
23470;SDS011;11908;50.806;4.424;2023-04-16T12:45:16;24.70;;;12.45;;
23470;SDS011;11908;50.806;4.424;2023-04-16T12:47:42;23.10;;;12.65;;
23470;SDS011;11908;50.806;4.424;2023-04-16T12:50:08;24.73;;;13.30;;
23470;SDS011;11908;50.806;4.424;2023-04-16T12:52:34;23.90;;;12.90;;
23470;SDS011;11908;50.806;4.424;2023-04-16T12:55:00;21.58;;;12.82;;
23470;SDS011;11908;50.806;4.424;2023-04-16T12:57:26;23.63;;;13.38;;
23470;SDS011;11908;50.806;4.424;2023-04-16T12:59:53;24.50;;;12.13;;
23470;SDS011;11908;50.806;4.424;2023-04-16T13:02:20;27.52;;;12.85;;
23470;SDS011;11908;50.806;4.424;2023-04-16T13:04:46;21.50;;;12.68;;
23470;SDS011;11908;50.806;4.424;2023-04-16T13:07:11;26.05;;;14.65;;
23470;SDS011;11908;50.806;4.424;2023-04-16T13:09:37;22.40;;;13.68;;
23470;SDS011;11908;50.806;4.424;2023-04-16T13:12:03;24.63;;;13.73;;
23470;SDS011;11908;50.806;4.424;2023-04-16T13:14:29;25.67;;;14.00;;
23470;SDS011;11908;50.806;4.424;2023-04-16T13:16:54;28.67;;;14.13;;
23470;SDS011;11908;50.806;4.424;2023-04-16T13:19:20;33.88;;;15.23;;
23470;SDS011;11908;50.806;4.424;2023-04-16T13:21:46;25.13;;;14.30;;
23470;SDS011;11908;50.806;4.424;2023-04-16T13:24:11;25.65;;;14.45;;
23470;SDS011;11908;50.806;4.424;2023-04-16T13:26:37;24.75;;;15.45;;
23470;SDS011;11908;50.806;4.424;2023-04-16T13:29:03;27.33;;;15.70;;
23470;SDS011;11908;50.806;4.424;2023-04-16T13:31:28;29.48;;;15.98;;
23470;SDS011;11908;50.806;4.424;2023-04-16T13:33:54;30.23;;;16.45;;
23470;SDS011;11908;50.806;4.424;2023-04-16T13:36:20;34.45;;;18.17;;
23470;SDS011;11908;50.806;4.424;2023-04-16T13:38:45;29.58;;;17.13;;
23470;SDS011;11908;50.806;4.424;2023-04-16T13:41:11;29.23;;;16.27;;
23470;SDS011;11908;50.806;4.424;2023-04-16T13:43:37;26.80;;;15.48;;
23470;SDS011;11908;50.806;4.424;2023-04-16T13:46:02;26.48;;;16.05;;
23470;SDS011;11908;50.806;4.424;2023-04-16T13:48:28;27.58;;;15.80;;
23470;SDS011;11908;50.806;4.424;2023-04-16T13:50:54;29.65;;;16.42;;
23470;SDS011;11908;50.806;4.424;2023-04-16T13:53:20;23.60;;;14.90;;
23470;SDS011;11908;50.806;4.424;2023-04-16T13:55:46;32.20;;;16.13;;
23470;SDS011;11908;50.806;4.424;2023-04-16T13:58:13;27.15;;;14.93;;
23470;SDS011;11908;50.806;4.424;2023-04-16T14:00:39;25.90;;;15.60;;
23470;SDS011;11908;50.806;4.424;2023-04-16T14:03:06;27.88;;;16.45;;
23470;SDS011;11908;50.806;4.424;2023-04-16T14:05:32;23.92;;;15.55;;
23470;SDS011;11908;50.806;4.424;2023-04-16T14:07:58;27.38;;;15.55;;
23470;SDS011;11908;50.806;4.424;2023-04-16T14:10:23;26.75;;;15.48;;
23470;SDS011;11908;50.806;4.424;2023-04-16T14:12:49;22.02;;;15.82;;
23470;SDS011;11908;50.806;4.424;2023-04-16T14:15:15;25.13;;;15.52;;
23470;SDS011;11908;50.806;4.424;2023-04-16T14:17:41;25.45;;;16.52;;
23470;SDS011;11908;50.806;4.424;2023-04-16T14:20:08;32.00;;;16.02;;
23470;SDS011;11908;50.806;4.424;2023-04-16T14:22:37;27.85;;;15.45;;
23470;SDS011;11908;50.806;4.424;2023-04-16T14:25:04;25.58;;;14.90;;
23470;SDS011;11908;50.806;4.424;2023-04-16T14:27:30;31.90;;;16.27;;
23470;SDS011;11908;50.806;4.424;2023-04-16T14:29:56;22.98;;;15.70;;
23470;SDS011;11908;50.806;4.424;2023-04-16T14:32:22;24.10;;;15.02;;
23470;SDS011;11908;50.806;4.424;2023-04-16T14:34:47;24.92;;;16.02;;
23470;SDS011;11908;50.806;4.424;2023-04-16T14:37:14;21.77;;;15.70;;
23470;SDS011;11908;50.806;4.424;2023-04-16T14:39:41;27.48;;;16.42;;